Search for airport 
image banner adimage banner adimage banner ad
image banner ad

NV37 - Eldorado Substation

Located in Nelson, United States

ICAO - NV37, IATA -

Data provided by Airmate  

General information

Coordinates: N35°47'40" W115°0'39"
Elevation is 1800 feet MSL.
Magnetic variation is 14° East
View others Airports in Nevada

Operational data

Special qualification required
Current time UTC:
Current local time:
Weather at : KBVU - Boulder City Muni ( 22 km )
METAR: KBVU 130235Z AUTO 15008KT 10SM CLR 37/M14 A2978 RMK AO2
View NOTAMs / SUP AIP / TFR affecting this airport [VIEW]
Communications frequencies: [VIEW]

Runways:

Airport contact information

Address: Nelson United States

Satellite view of NV37